sensor_id;sensor_type;location;lat;lon;timestamp;temperature;humidity
67141;DHT22;54058;52.010;5.546;2022-09-27T00:02:14;11.60;89.70
67141;DHT22;54058;52.010;5.546;2022-09-27T00:04:40;11.60;89.60
67141;DHT22;54058;52.010;5.546;2022-09-27T00:07:06;11.60;89.60
67141;DHT22;54058;52.010;5.546;2022-09-27T00:09:32;11.60;89.40
67141;DHT22;54058;52.010;5.546;2022-09-27T00:11:57;11.50;89.40
67141;DHT22;54058;52.010;5.546;2022-09-27T00:14:23;11.50;89.50
67141;DHT22;54058;52.010;5.546;2022-09-27T00:16:49;11.50;89.50
67141;DHT22;54058;52.010;5.546;2022-09-27T00:19:16;11.40;89.50
67141;DHT22;54058;52.010;5.546;2022-09-27T00:21:43;11.40;89.60
67141;DHT22;54058;52.010;5.546;2022-09-27T00:24:14;11.30;89.70
67141;DHT22;54058;52.010;5.546;2022-09-27T00:26:40;11.30;89.70
67141;DHT22;54058;52.010;5.546;2022-09-27T00:29:06;11.30;89.70
67141;DHT22;54058;52.010;5.546;2022-09-27T00:31:32;11.30;89.60
67141;DHT22;54058;52.010;5.546;2022-09-27T00:34:00;11.30;89.60
67141;DHT22;54058;52.010;5.546;2022-09-27T00:36:27;11.30;89.70
67141;DHT22;54058;52.010;5.546;2022-09-27T00:38:54;11.30;89.80
67141;DHT22;54058;52.010;5.546;2022-09-27T00:41:34;11.30;89.80
67141;DHT22;54058;52.010;5.546;2022-09-27T00:44:03;11.30;89.80
67141;DHT22;54058;52.010;5.546;2022-09-27T00:49:32;11.30;90.00
67141;DHT22;54058;52.010;5.546;2022-09-27T00:52:01;11.30;90.00
67141;DHT22;54058;52.010;5.546;2022-09-27T00:54:28;11.20;89.90
67141;DHT22;54058;52.010;5.546;2022-09-27T00:56:55;11.30;90.00
67141;DHT22;54058;52.010;5.546;2022-09-27T01:01:57;11.30;89.80
67141;DHT22;54058;52.010;5.546;2022-09-27T01:04:27;11.20;89.60
67141;DHT22;54058;52.010;5.546;2022-09-27T01:06:54;11.20;89.70
67141;DHT22;54058;52.010;5.546;2022-09-27T01:09:20;11.20;89.80
67141;DHT22;54058;52.010;5.546;2022-09-27T01:17:22;11.10;90.00
67141;DHT22;54058;52.010;5.546;2022-09-27T01:28:19;11.10;89.80
67141;DHT22;54058;52.010;5.546;2022-09-27T01:30:52;11.10;89.70
67141;DHT22;54058;52.010;5.546;2022-09-27T01:38:19;11.10;89.70
67141;DHT22;54058;52.010;5.546;2022-09-27T01:49:35;10.90;89.90
67141;DHT22;54058;52.010;5.546;2022-09-27T01:52:07;10.90;89.80
67141;DHT22;54058;52.010;5.546;2022-09-27T01:54:37;10.90;89.80
67141;DHT22;54058;52.010;5.546;2022-09-27T01:57:06;10.90;89.80
67141;DHT22;54058;52.010;5.546;2022-09-27T01:59:38;10.90;89.70
67141;DHT22;54058;52.010;5.546;2022-09-27T02:02:08;10.90;89.70
67141;DHT22;54058;52.010;5.546;2022-09-27T02:04:36;10.90;89.70
67141;DHT22;54058;52.010;5.546;2022-09-27T02:07:23;10.90;89.70
67141;DHT22;54058;52.010;5.546;2022-09-27T02:09:58;10.90;89.70
67141;DHT22;54058;52.010;5.546;2022-09-27T02:12:29;10.90;89.90
67141;DHT22;54058;52.010;5.546;2022-09-27T02:15:11;10.90;90.00
67141;DHT22;54058;52.010;5.546;2022-09-27T02:17:55;10.90;90.00
67141;DHT22;54058;52.010;5.546;2022-09-27T02:20:36;10.90;90.00
67141;DHT22;54058;52.010;5.546;2022-09-27T02:26:12;10.90;89.70
67141;DHT22;54058;52.010;5.546;2022-09-27T02:28:30;10.90;89.70
67141;DHT22;54058;52.010;5.546;2022-09-27T02:30:58;10.90;89.60
67141;DHT22;54058;52.010;5.546;2022-09-27T02:33:32;10.90;89.50
67141;DHT22;54058;52.010;5.546;2022-09-27T02:36:00;10.90;89.50
67141;DHT22;54058;52.010;5.546;2022-09-27T02:38:26;10.90;89.60
67141;DHT22;54058;52.010;5.546;2022-09-27T02:40:52;10.80;89.60
67141;DHT22;54058;52.010;5.546;2022-09-27T02:43:19;10.80;89.70
67141;DHT22;54058;52.010;5.546;2022-09-27T02:48:54;10.80;89.80
67141;DHT22;54058;52.010;5.546;2022-09-27T02:54:30;10.80;89.70
67141;DHT22;54058;52.010;5.546;2022-09-27T03:00:09;10.80;89.70
67141;DHT22;54058;52.010;5.546;2022-09-27T03:05:14;10.80;89.50
67141;DHT22;54058;52.010;5.546;2022-09-27T03:07:41;10.80;89.50
67141;DHT22;54058;52.010;5.546;2022-09-27T03:10:16;10.80;89.50
67141;DHT22;54058;52.010;5.546;2022-09-27T03:12:42;10.80;89.50
67141;DHT22;54058;52.010;5.546;2022-09-27T03:15:08;10.80;89.50
67141;DHT22;54058;52.010;5.546;2022-09-27T03:17:35;10.80;89.50
67141;DHT22;54058;52.010;5.546;2022-09-27T03:20:01;10.70;89.50
67141;DHT22;54058;52.010;5.546;2022-09-27T03:22:26;10.80;89.50
67141;DHT22;54058;52.010;5.546;2022-09-27T03:24:52;10.80;89.40
67141;DHT22;54058;52.010;5.546;2022-09-27T03:27:17;10.80;89.40
67141;DHT22;54058;52.010;5.546;2022-09-27T03:29:43;10.70;89.30
67141;DHT22;54058;52.010;5.546;2022-09-27T03:32:09;10.70;89.30
67141;DHT22;54058;52.010;5.546;2022-09-27T03:34:35;10.70;89.30
67141;DHT22;54058;52.010;5.546;2022-09-27T03:37:00;10.60;89.50
67141;DHT22;54058;52.010;5.546;2022-09-27T03:39:26;10.60;89.70
67141;DHT22;54058;52.010;5.546;2022-09-27T03:41:52;10.70;89.70
67141;DHT22;54058;52.010;5.546;2022-09-27T03:44:18;10.70;89.60
67141;DHT22;54058;52.010;5.546;2022-09-27T03:46:44;10.60;89.60
67141;DHT22;54058;52.010;5.546;2022-09-27T03:49:09;10.60;89.70
67141;DHT22;54058;52.010;5.546;2022-09-27T03:51:35;10.60;89.70
67141;DHT22;54058;52.010;5.546;2022-09-27T03:54:01;10.60;89.80
67141;DHT22;54058;52.010;5.546;2022-09-27T03:56:26;10.70;89.80
67141;DHT22;54058;52.010;5.546;2022-09-27T03:58:52;10.70;89.80
67141;DHT22;54058;52.010;5.546;2022-09-27T04:01:18;10.70;90.00
67141;DHT22;54058;52.010;5.546;2022-09-27T04:03:44;10.70;90.00
67141;DHT22;54058;52.010;5.546;2022-09-27T04:06:10;10.70;89.90
67141;DHT22;54058;52.010;5.546;2022-09-27T04:08:36;10.60;89.80
67141;DHT22;54058;52.010;5.546;2022-09-27T04:11:01;10.60;89.90
67141;DHT22;54058;52.010;5.546;2022-09-27T04:13:28;10.60;90.00
67141;DHT22;54058;52.010;5.546;2022-09-27T04:15:54;10.50;90.10
67141;DHT22;54058;52.010;5.546;2022-09-27T04:18:19;10.50;90.10
67141;DHT22;54058;52.010;5.546;2022-09-27T04:20:45;10.60;90.10
67141;DHT22;54058;52.010;5.546;2022-09-27T04:23:10;10.60;90.10
67141;DHT22;54058;52.010;5.546;2022-09-27T04:25:36;10.60;90.00
67141;DHT22;54058;52.010;5.546;2022-09-27T04:28:04;10.50;90.00
67141;DHT22;54058;52.010;5.546;2022-09-27T04:30:30;10.50;90.00
67141;DHT22;54058;52.010;5.546;2022-09-27T04:32:56;10.50;90.00
67141;DHT22;54058;52.010;5.546;2022-09-27T04:35:22;10.40;90.00
67141;DHT22;54058;52.010;5.546;2022-09-27T04:38:06;10.40;90.00
67141;DHT22;54058;52.010;5.546;2022-09-27T04:40:35;10.30;90.00
67141;DHT22;54058;52.010;5.546;2022-09-27T04:43:00;10.40;90.10
67141;DHT22;54058;52.010;5.546;2022-09-27T04:45:27;10.30;90.00
67141;DHT22;54058;52.010;5.546;2022-09-27T04:47:53;10.40;90.10
67141;DHT22;54058;52.010;5.546;2022-09-27T04:50:18;10.30;90.30
67141;DHT22;54058;52.010;5.546;2022-09-27T04:52:52;10.40;90.10
67141;DHT22;54058;52.010;5.546;2022-09-27T04:55:21;10.40;90.10
67141;DHT22;54058;52.010;5.546;2022-09-27T04:57:47;10.40;90.20
67141;DHT22;54058;52.010;5.546;2022-09-27T05:00:14;10.50;90.10
67141;DHT22;54058;52.010;5.546;2022-09-27T05:02:42;10.50;90.00
67141;DHT22;54058;52.010;5.546;2022-09-27T05:05:08;10.50;90.00
67141;DHT22;54058;52.010;5.546;2022-09-27T05:07:34;10.50;90.00
67141;DHT22;54058;52.010;5.546;2022-09-27T05:10:00;10.40;89.90
67141;DHT22;54058;52.010;5.546;2022-09-27T05:12:25;10.50;90.00
67141;DHT22;54058;52.010;5.546;2022-09-27T05:14:52;10.50;89.90
67141;DHT22;54058;52.010;5.546;2022-09-27T05:17:18;10.50;89.80
67141;DHT22;54058;52.010;5.546;2022-09-27T05:19:44;10.60;89.80
67141;DHT22;54058;52.010;5.546;2022-09-27T05:22:10;10.60;89.70
67141;DHT22;54058;52.010;5.546;2022-09-27T05:24:36;10.60;89.50
67141;DHT22;54058;52.010;5.546;2022-09-27T05:27:03;10.60;89.60
67141;DHT22;54058;52.010;5.546;2022-09-27T05:29:32;10.60;89.40
67141;DHT22;54058;52.010;5.546;2022-09-27T05:31:58;10.60;89.50
67141;DHT22;54058;52.010;5.546;2022-09-27T05:34:24;10.60;89.50
67141;DHT22;54058;52.010;5.546;2022-09-27T05:36:49;10.60;89.40
67141;DHT22;54058;52.010;5.546;2022-09-27T05:39:16;10.70;89.40
67141;DHT22;54058;52.010;5.546;2022-09-27T05:41:45;10.70;89.20
67141;DHT22;54058;52.010;5.546;2022-09-27T05:44:12;10.60;89.20
67141;DHT22;54058;52.010;5.546;2022-09-27T05:46:38;10.60;89.40
67141;DHT22;54058;52.010;5.546;2022-09-27T05:49:04;10.60;89.50
67141;DHT22;54058;52.010;5.546;2022-09-27T05:51:30;10.60;89.70
67141;DHT22;54058;52.010;5.546;2022-09-27T05:53:56;10.60;89.70
67141;DHT22;54058;52.010;5.546;2022-09-27T05:56:22;10.60;89.80
67141;DHT22;54058;52.010;5.546;2022-09-27T05:58:49;10.70;89.90
67141;DHT22;54058;52.010;5.546;2022-09-27T06:01:15;10.70;90.00
67141;DHT22;54058;52.010;5.546;2022-09-27T06:03:41;10.70;90.00
67141;DHT22;54058;52.010;5.546;2022-09-27T06:06:07;10.70;90.00
67141;DHT22;54058;52.010;5.546;2022-09-27T06:08:36;10.80;90.00
67141;DHT22;54058;52.010;5.546;2022-09-27T06:11:03;10.80;90.00
67141;DHT22;54058;52.010;5.546;2022-09-27T06:13:29;10.80;90.00
67141;DHT22;54058;52.010;5.546;2022-09-27T06:15:54;10.80;90.00
67141;DHT22;54058;52.010;5.546;2022-09-27T06:18:20;10.90;90.00
67141;DHT22;54058;52.010;5.546;2022-09-27T06:20:46;10.80;89.70
67141;DHT22;54058;52.010;5.546;2022-09-27T06:23:20;10.80;89.90
67141;DHT22;54058;52.010;5.546;2022-09-27T06:25:47;10.80;90.00
67141;DHT22;54058;52.010;5.546;2022-09-27T06:28:13;10.90;90.00
67141;DHT22;54058;52.010;5.546;2022-09-27T06:30:40;11.00;90.10
67141;DHT22;54058;52.010;5.546;2022-09-27T06:33:09;11.10;90.10
67141;DHT22;54058;52.010;5.546;2022-09-27T06:35:36;11.20;90.00
67141;DHT22;54058;52.010;5.546;2022-09-27T06:38:06;11.30;90.00
67141;DHT22;54058;52.010;5.546;2022-09-27T06:40:33;11.40;90.00
67141;DHT22;54058;52.010;5.546;2022-09-27T06:43:03;11.50;90.00
67141;DHT22;54058;52.010;5.546;2022-09-27T06:45:29;11.50;90.00
67141;DHT22;54058;52.010;5.546;2022-09-27T06:47:56;11.50;90.00
67141;DHT22;54058;52.010;5.546;2022-09-27T06:50:22;11.50;90.00
67141;DHT22;54058;52.010;5.546;2022-09-27T06:52:49;11.50;90.10
67141;DHT22;54058;52.010;5.546;2022-09-27T06:55:15;11.50;90.10
67141;DHT22;54058;52.010;5.546;2022-09-27T06:57:41;11.50;90.20
67141;DHT22;54058;52.010;5.546;2022-09-27T07:00:26;11.50;90.20
67141;DHT22;54058;52.010;5.546;2022-09-27T07:02:52;11.50;90.20
67141;DHT22;54058;52.010;5.546;2022-09-27T07:05:19;11.60;90.20
67141;DHT22;54058;52.010;5.546;2022-09-27T07:07:45;11.60;90.30
67141;DHT22;54058;52.010;5.546;2022-09-27T07:10:14;11.60;90.20
67141;DHT22;54058;52.010;5.546;2022-09-27T07:12:42;11.70;90.20
67141;DHT22;54058;52.010;5.546;2022-09-27T07:15:09;11.80;90.20
67141;DHT22;54058;52.010;5.546;2022-09-27T07:17:34;11.80;90.30
67141;DHT22;54058;52.010;5.546;2022-09-27T07:20:00;11.80;90.30
67141;DHT22;54058;52.010;5.546;2022-09-27T07:22:27;11.80;90.20
67141;DHT22;54058;52.010;5.546;2022-09-27T07:24:54;11.90;90.20
67141;DHT22;54058;52.010;5.546;2022-09-27T07:27:19;11.80;90.10
67141;DHT22;54058;52.010;5.546;2022-09-27T07:29:46;11.80;90.20
67141;DHT22;54058;52.010;5.546;2022-09-27T07:32:12;11.90;90.30
67141;DHT22;54058;52.010;5.546;2022-09-27T07:34:38;11.90;90.30
67141;DHT22;54058;52.010;5.546;2022-09-27T07:37:03;12.00;90.20
67141;DHT22;54058;52.010;5.546;2022-09-27T07:39:30;12.00;90.20
67141;DHT22;54058;52.010;5.546;2022-09-27T07:41:56;12.10;90.20
67141;DHT22;54058;52.010;5.546;2022-09-27T07:44:22;12.20;90.20
67141;DHT22;54058;52.010;5.546;2022-09-27T07:46:48;12.20;90.20
67141;DHT22;54058;52.010;5.546;2022-09-27T07:49:13;12.30;90.20
67141;DHT22;54058;52.010;5.546;2022-09-27T07:51:39;12.30;90.20
67141;DHT22;54058;52.010;5.546;2022-09-27T07:54:04;12.40;90.10
67141;DHT22;54058;52.010;5.546;2022-09-27T07:56:30;12.40;90.10
67141;DHT22;54058;52.010;5.546;2022-09-27T07:58:56;12.40;90.00
67141;DHT22;54058;52.010;5.546;2022-09-27T08:01:21;12.40;90.00
67141;DHT22;54058;52.010;5.546;2022-09-27T08:03:47;12.30;90.00
67141;DHT22;54058;52.010;5.546;2022-09-27T08:06:13;12.30;90.10
67141;DHT22;54058;52.010;5.546;2022-09-27T08:08:38;12.30;90.10
67141;DHT22;54058;52.010;5.546;2022-09-27T08:11:15;12.30;90.10
67141;DHT22;54058;52.010;5.546;2022-09-27T08:13:42;12.30;90.00
67141;DHT22;54058;52.010;5.546;2022-09-27T08:16:08;12.30;90.00
67141;DHT22;54058;52.010;5.546;2022-09-27T08:18:33;12.30;90.10
67141;DHT22;54058;52.010;5.546;2022-09-27T08:20:59;12.30;90.10
67141;DHT22;54058;52.010;5.546;2022-09-27T08:23:25;12.30;90.10
67141;DHT22;54058;52.010;5.546;2022-09-27T08:25:55;12.30;90.10
67141;DHT22;54058;52.010;5.546;2022-09-27T08:28:27;12.40;90.20
67141;DHT22;54058;52.010;5.546;2022-09-27T08:30:52;12.50;90.20
67141;DHT22;54058;52.010;5.546;2022-09-27T08:33:18;12.60;90.20
67141;DHT22;54058;52.010;5.546;2022-09-27T08:35:44;12.60;90.10
67141;DHT22;54058;52.010;5.546;2022-09-27T08:38:10;12.70;90.10
67141;DHT22;54058;52.010;5.546;2022-09-27T08:40:56;12.70;90.00
67141;DHT22;54058;52.010;5.546;2022-09-27T08:43:48;12.80;90.10
67141;DHT22;54058;52.010;5.546;2022-09-27T08:46:55;13.00;90.10
67141;DHT22;54058;52.010;5.546;2022-09-27T08:52:32;13.20;89.80
67141;DHT22;54058;52.010;5.546;2022-09-27T08:55:05;13.10;89.80
67141;DHT22;54058;52.010;5.546;2022-09-27T08:57:33;13.00;89.90
67141;DHT22;54058;52.010;5.546;2022-09-27T09:00:07;13.00;90.00
67141;DHT22;54058;52.010;5.546;2022-09-27T09:02:36;12.90;89.70
67141;DHT22;54058;52.010;5.546;2022-09-27T09:05:20;12.80;90.20
67141;DHT22;54058;52.010;5.546;2022-09-27T09:07:55;12.70;90.10
67141;DHT22;54058;52.010;5.546;2022-09-27T09:16:24;12.70;90.10
67141;DHT22;54058;52.010;5.546;2022-09-27T09:19:45;12.60;90.40
67141;DHT22;54058;52.010;5.546;2022-09-27T09:24:51;12.40;90.30
67141;DHT22;54058;52.010;5.546;2022-09-27T09:27:41;12.40;90.30
67141;DHT22;54058;52.010;5.546;2022-09-27T09:33:10;12.50;90.40
67141;DHT22;54058;52.010;5.546;2022-09-27T09:35:42;12.40;90.30
67141;DHT22;54058;52.010;5.546;2022-09-27T09:38:17;12.50;90.30
67141;DHT22;54058;52.010;5.546;2022-09-27T09:40:48;12.50;90.20
67141;DHT22;54058;52.010;5.546;2022-09-27T09:46:02;12.50;90.10
67141;DHT22;54058;52.010;5.546;2022-09-27T09:48:43;12.50;90.10
67141;DHT22;54058;52.010;5.546;2022-09-27T09:51:16;12.50;90.10
67141;DHT22;54058;52.010;5.546;2022-09-27T09:56:28;12.40;90.20
67141;DHT22;54058;52.010;5.546;2022-09-27T09:59:08;12.30;90.10
67141;DHT22;54058;52.010;5.546;2022-09-27T10:04:04;12.30;90.20
67141;DHT22;54058;52.010;5.546;2022-09-27T10:06:30;12.30;90.20
67141;DHT22;54058;52.010;5.546;2022-09-27T10:08:56;12.20;90.20
67141;DHT22;54058;52.010;5.546;2022-09-27T10:11:29;12.30;90.20
67141;DHT22;54058;52.010;5.546;2022-09-27T10:13:57;12.30;90.30
67141;DHT22;54058;52.010;5.546;2022-09-27T10:16:25;12.30;90.30
67141;DHT22;54058;52.010;5.546;2022-09-27T10:18:56;12.40;90.30
67141;DHT22;54058;52.010;5.546;2022-09-27T10:21:27;12.30;90.20
67141;DHT22;54058;52.010;5.546;2022-09-27T10:24:03;12.30;90.30
67141;DHT22;54058;52.010;5.546;2022-09-27T10:26:30;12.30;90.30
67141;DHT22;54058;52.010;5.546;2022-09-27T10:28:56;12.40;90.30
67141;DHT22;54058;52.010;5.546;2022-09-27T10:31:22;12.40;90.30
67141;DHT22;54058;52.010;5.546;2022-09-27T10:33:54;12.50;90.30
67141;DHT22;54058;52.010;5.546;2022-09-27T10:36:29;12.50;90.20
67141;DHT22;54058;52.010;5.546;2022-09-27T10:38:58;12.60;90.20
67141;DHT22;54058;52.010;5.546;2022-09-27T10:41:36;12.60;90.10
67141;DHT22;54058;52.010;5.546;2022-09-27T10:44:20;12.60;90.10
67141;DHT22;54058;52.010;5.546;2022-09-27T10:46:51;12.60;90.00
67141;DHT22;54058;52.010;5.546;2022-09-27T10:51:58;12.70;90.00
67141;DHT22;54058;52.010;5.546;2022-09-27T10:54:27;12.60;90.00
67141;DHT22;54058;52.010;5.546;2022-09-27T10:59:23;12.70;89.90
67141;DHT22;54058;52.010;5.546;2022-09-27T11:01:50;12.80;90.00
67141;DHT22;54058;52.010;5.546;2022-09-27T11:06:45;12.90;89.40
67141;DHT22;54058;52.010;5.546;2022-09-27T11:11:47;13.10;89.90
67141;DHT22;54058;52.010;5.546;2022-09-27T11:14:21;13.10;89.90
67141;DHT22;54058;52.010;5.546;2022-09-27T11:20:09;13.20;90.00
67141;DHT22;54058;52.010;5.546;2022-09-27T11:22:21;13.30;90.00
67141;DHT22;54058;52.010;5.546;2022-09-27T11:30:21;13.50;89.90
67141;DHT22;54058;52.010;5.546;2022-09-27T11:35:57;13.40;89.90
67141;DHT22;54058;52.010;5.546;2022-09-27T11:38:31;13.50;89.90
67141;DHT22;54058;52.010;5.546;2022-09-27T11:43:38;13.50;90.00
67141;DHT22;54058;52.010;5.546;2022-09-27T11:57:55;13.50;89.70
67141;DHT22;54058;52.010;5.546;2022-09-27T12:00:24;13.60;89.30
67141;DHT22;54058;52.010;5.546;2022-09-27T12:08:31;13.60;89.10
67141;DHT22;54058;52.010;5.546;2022-09-27T12:13:47;13.60;88.90
67141;DHT22;54058;52.010;5.546;2022-09-27T12:16:15;13.60;89.00
67141;DHT22;54058;52.010;5.546;2022-09-27T12:18:42;13.60;88.80
67141;DHT22;54058;52.010;5.546;2022-09-27T12:21:10;13.70;88.70
67141;DHT22;54058;52.010;5.546;2022-09-27T12:23:43;13.60;88.60
67141;DHT22;54058;52.010;5.546;2022-09-27T12:26:29;13.60;88.60
67141;DHT22;54058;52.010;5.546;2022-09-27T12:29:09;13.60;87.90
67141;DHT22;54058;52.010;5.546;2022-09-27T12:31:53;13.50;88.40
67141;DHT22;54058;52.010;5.546;2022-09-27T12:34:32;13.40;88.50
67141;DHT22;54058;52.010;5.546;2022-09-27T12:43:11;13.20;88.30
67141;DHT22;54058;52.010;5.546;2022-09-27T12:45:12;13.20;88.10
67141;DHT22;54058;52.010;5.546;2022-09-27T12:52:52;12.90;89.00
67141;DHT22;54058;52.010;5.546;2022-09-27T13:01:33;12.50;88.50
67141;DHT22;54058;52.010;5.546;2022-09-27T13:07:17;12.30;88.90
67141;DHT22;54058;52.010;5.546;2022-09-27T13:10:05;12.30;88.90
67141;DHT22;54058;52.010;5.546;2022-09-27T13:12:35;12.40;89.00
67141;DHT22;54058;52.010;5.546;2022-09-27T13:15:44;12.30;89.00
67141;DHT22;54058;52.010;5.546;2022-09-27T13:18:06;12.40;88.90
67141;DHT22;54058;52.010;5.546;2022-09-27T13:20:51;12.30;88.90
67141;DHT22;54058;52.010;5.546;2022-09-27T13:25:59;12.30;89.10
67141;DHT22;54058;52.010;5.546;2022-09-27T13:33:47;12.30;89.20
67141;DHT22;54058;52.010;5.546;2022-09-27T13:36:24;12.40;89.20
67141;DHT22;54058;52.010;5.546;2022-09-27T13:39:05;12.40;89.10
67141;DHT22;54058;52.010;5.546;2022-09-27T13:49:46;12.60;89.00
67141;DHT22;54058;52.010;5.546;2022-09-27T13:52:32;12.60;89.00
67141;DHT22;54058;52.010;5.546;2022-09-27T13:55:02;12.50;88.30
67141;DHT22;54058;52.010;5.546;2022-09-27T13:57:53;12.50;88.90
67141;DHT22;54058;52.010;5.546;2022-09-27T14:00:22;12.60;88.40
67141;DHT22;54058;52.010;5.546;2022-09-27T14:05:40;12.50;88.90
67141;DHT22;54058;52.010;5.546;2022-09-27T14:08:19;12.70;89.20
67141;DHT22;54058;52.010;5.546;2022-09-27T14:10:49;12.90;89.30
67141;DHT22;54058;52.010;5.546;2022-09-27T14:13:18;13.10;89.10
67141;DHT22;54058;52.010;5.546;2022-09-27T14:15:45;13.10;89.10
67141;DHT22;54058;52.010;5.546;2022-09-27T14:18:11;13.20;88.50
67141;DHT22;54058;52.010;5.546;2022-09-27T14:20:48;13.20;88.10
67141;DHT22;54058;52.010;5.546;2022-09-27T14:23:21;13.20;87.90
67141;DHT22;54058;52.010;5.546;2022-09-27T14:25:48;13.30;88.00
67141;DHT22;54058;52.010;5.546;2022-09-27T14:28:20;13.40;88.00
67141;DHT22;54058;52.010;5.546;2022-09-27T14:30:46;13.40;87.90
67141;DHT22;54058;52.010;5.546;2022-09-27T14:33:32;13.40;87.70
67141;DHT22;54058;52.010;5.546;2022-09-27T14:35:59;13.30;87.50
67141;DHT22;54058;52.010;5.546;2022-09-27T14:38:44;13.30;87.90
67141;DHT22;54058;52.010;5.546;2022-09-27T14:41:10;13.30;88.10
67141;DHT22;54058;52.010;5.546;2022-09-27T14:43:42;13.30;88.10
67141;DHT22;54058;52.010;5.546;2022-09-27T14:46:27;13.30;88.10
67141;DHT22;54058;52.010;5.546;2022-09-27T14:48:53;13.30;87.90
67141;DHT22;54058;52.010;5.546;2022-09-27T14:51:28;13.30;88.20
67141;DHT22;54058;52.010;5.546;2022-09-27T14:53:57;13.40;88.20
67141;DHT22;54058;52.010;5.546;2022-09-27T14:56:31;13.40;88.10
67141;DHT22;54058;52.010;5.546;2022-09-27T14:59:12;13.40;87.90
67141;DHT22;54058;52.010;5.546;2022-09-27T15:01:48;13.40;87.80
67141;DHT22;54058;52.010;5.546;2022-09-27T15:04:14;13.40;87.80
67141;DHT22;54058;52.010;5.546;2022-09-27T15:06:41;13.40;87.80
67141;DHT22;54058;52.010;5.546;2022-09-27T15:09:11;13.40;87.90
67141;DHT22;54058;52.010;5.546;2022-09-27T15:11:42;13.40;87.90
67141;DHT22;54058;52.010;5.546;2022-09-27T15:14:15;13.40;87.90
67141;DHT22;54058;52.010;5.546;2022-09-27T15:16:41;13.40;87.90
67141;DHT22;54058;52.010;5.546;2022-09-27T15:19:27;13.40;87.90
67141;DHT22;54058;52.010;5.546;2022-09-27T15:21:54;13.40;87.70
67141;DHT22;54058;52.010;5.546;2022-09-27T15:24:44;13.40;87.60
67141;DHT22;54058;52.010;5.546;2022-09-27T15:27:19;13.30;87.40
67141;DHT22;54058;52.010;5.546;2022-09-27T15:29:52;13.30;87.80
67141;DHT22;54058;52.010;5.546;2022-09-27T15:32:20;13.30;87.70
67141;DHT22;54058;52.010;5.546;2022-09-27T15:34:48;13.30;87.60
67141;DHT22;54058;52.010;5.546;2022-09-27T15:37:34;13.30;87.60
67141;DHT22;54058;52.010;5.546;2022-09-27T15:42:55;13.30;87.50
67141;DHT22;54058;52.010;5.546;2022-09-27T15:45:50;13.30;87.50
67141;DHT22;54058;52.010;5.546;2022-09-27T15:48:18;13.40;88.00
67141;DHT22;54058;52.010;5.546;2022-09-27T15:50:44;13.40;87.40
67141;DHT22;54058;52.010;5.546;2022-09-27T15:55:59;13.30;87.10
67141;DHT22;54058;52.010;5.546;2022-09-27T15:58:24;13.20;87.40
67141;DHT22;54058;52.010;5.546;2022-09-27T16:00:56;13.10;87.50
67141;DHT22;54058;52.010;5.546;2022-09-27T16:03:23;13.10;87.50
67141;DHT22;54058;52.010;5.546;2022-09-27T16:05:49;13.10;87.50
67141;DHT22;54058;52.010;5.546;2022-09-27T16:08:15;13.00;87.10
67141;DHT22;54058;52.010;5.546;2022-09-27T16:10:50;13.00;87.50
67141;DHT22;54058;52.010;5.546;2022-09-27T16:13:16;13.00;87.50
67141;DHT22;54058;52.010;5.546;2022-09-27T16:15:41;13.00;87.50
67141;DHT22;54058;52.010;5.546;2022-09-27T16:18:09;13.00;87.50
67141;DHT22;54058;52.010;5.546;2022-09-27T16:20:34;13.00;88.10
67141;DHT22;54058;52.010;5.546;2022-09-27T16:23:00;13.00;87.40
67141;DHT22;54058;52.010;5.546;2022-09-27T16:25:26;13.00;87.40
67141;DHT22;54058;52.010;5.546;2022-09-27T16:27:55;13.00;87.40
67141;DHT22;54058;52.010;5.546;2022-09-27T16:30:22;12.90;87.40
67141;DHT22;54058;52.010;5.546;2022-09-27T16:32:48;12.90;87.40
67141;DHT22;54058;52.010;5.546;2022-09-27T16:35:15;12.90;87.50
67141;DHT22;54058;52.010;5.546;2022-09-27T16:37:42;12.80;87.50
67141;DHT22;54058;52.010;5.546;2022-09-27T16:40:09;12.80;87.50
67141;DHT22;54058;52.010;5.546;2022-09-27T16:42:36;12.80;87.30
67141;DHT22;54058;52.010;5.546;2022-09-27T16:45:02;12.70;86.60
67141;DHT22;54058;52.010;5.546;2022-09-27T16:47:29;12.70;86.80
67141;DHT22;54058;52.010;5.546;2022-09-27T16:49:55;12.70;87.10
67141;DHT22;54058;52.010;5.546;2022-09-27T16:52:39;12.60;87.00
67141;DHT22;54058;52.010;5.546;2022-09-27T16:55:07;12.60;87.00
67141;DHT22;54058;52.010;5.546;2022-09-27T16:57:32;12.60;86.90
67141;DHT22;54058;52.010;5.546;2022-09-27T16:59:59;12.50;86.90
67141;DHT22;54058;52.010;5.546;2022-09-27T17:02:26;12.40;86.80
67141;DHT22;54058;52.010;5.546;2022-09-27T17:04:52;12.40;87.00
67141;DHT22;54058;52.010;5.546;2022-09-27T17:07:20;12.40;87.10
67141;DHT22;54058;52.010;5.546;2022-09-27T17:09:46;12.30;87.10
67141;DHT22;54058;52.010;5.546;2022-09-27T17:12:13;12.30;87.20
67141;DHT22;54058;52.010;5.546;2022-09-27T17:14:39;12.30;87.20
67141;DHT22;54058;52.010;5.546;2022-09-27T17:17:05;12.30;87.20
67141;DHT22;54058;52.010;5.546;2022-09-27T17:19:31;12.20;87.20
67141;DHT22;54058;52.010;5.546;2022-09-27T17:21:57;12.20;87.20
67141;DHT22;54058;52.010;5.546;2022-09-27T17:24:23;12.20;87.10
67141;DHT22;54058;52.010;5.546;2022-09-27T17:26:49;12.20;87.20
67141;DHT22;54058;52.010;5.546;2022-09-27T17:29:14;12.20;87.30
67141;DHT22;54058;52.010;5.546;2022-09-27T17:31:41;12.10;87.10
67141;DHT22;54058;52.010;5.546;2022-09-27T17:34:08;12.10;87.20
67141;DHT22;54058;52.010;5.546;2022-09-27T17:36:37;12.10;87.20
67141;DHT22;54058;52.010;5.546;2022-09-27T17:39:04;12.10;87.20
67141;DHT22;54058;52.010;5.546;2022-09-27T17:41:30;12.00;87.20
67141;DHT22;54058;52.010;5.546;2022-09-27T17:43:59;12.00;87.30
67141;DHT22;54058;52.010;5.546;2022-09-27T17:46:27;12.00;87.30
67141;DHT22;54058;52.010;5.546;2022-09-27T17:48:53;12.00;87.30
67141;DHT22;54058;52.010;5.546;2022-09-27T17:51:39;12.00;87.20
67141;DHT22;54058;52.010;5.546;2022-09-27T17:54:07;12.00;87.30
67141;DHT22;54058;52.010;5.546;2022-09-27T17:56:37;11.90;87.20
67141;DHT22;54058;52.010;5.546;2022-09-27T17:59:04;11.90;87.20
67141;DHT22;54058;52.010;5.546;2022-09-27T18:01:30;11.90;87.30
67141;DHT22;54058;52.010;5.546;2022-09-27T18:03:58;11.90;87.30
67141;DHT22;54058;52.010;5.546;2022-09-27T18:06:25;11.90;87.40
67141;DHT22;54058;52.010;5.546;2022-09-27T18:08:52;11.90;87.40
67141;DHT22;54058;52.010;5.546;2022-09-27T18:11:20;11.90;87.40
67141;DHT22;54058;52.010;5.546;2022-09-27T18:13:57;11.90;87.40
67141;DHT22;54058;52.010;5.546;2022-09-27T18:16:28;11.80;87.30
67141;DHT22;54058;52.010;5.546;2022-09-27T18:18:57;11.80;87.30
67141;DHT22;54058;52.010;5.546;2022-09-27T18:21:22;11.80;87.30
67141;DHT22;54058;52.010;5.546;2022-09-27T18:23:53;11.80;87.30
67141;DHT22;54058;52.010;5.546;2022-09-27T18:26:22;11.80;87.40